Leonardville, Kansas
Current Conditions -  °F | °C
As of 11:16 PM on Saturday 20 Dec 2014 (Local Time) from KMHK Reporting Station
Haze Haze  
Wind Chill: 33°   Ceiling: 1600
Heat Index: 37°   Visibility: 6mi
Dew Point: 35°   Wind: 5mph
Humidity: 93%   Direction: 210°SSW
Pressure: 30.05"   Gusts: NA
Location:  39.36°N, 96.86°W
Report Text: KMHK 210516Z AUTO 21004KT 6SM BR BKN016 03/02 A3005 RMK AO2 T00280017 TSNO
Loading
Personal Weather Stations






























Interactive Weather Map New forecast layout! Learn more

10-Day Weather Forecast

Advertisements
Track Severe Weather on mobile